createdAt,value
2023-02-15T00:01:44.764Z,26.80
2023-02-15T00:04:15.546Z,28.63
2023-02-15T00:06:43.805Z,26.90
2023-02-15T00:09:12.779Z,27.05
2023-02-15T00:11:43.761Z,26.70
2023-02-15T00:14:13.665Z,25.48
2023-02-15T00:16:42.564Z,25.90
2023-02-15T00:19:14.093Z,24.50
2023-02-15T00:21:45.360Z,24.60
2023-02-15T00:24:18.257Z,26.27
2023-02-15T00:26:48.816Z,25.85
2023-02-15T00:29:18.958Z,27.45
2023-02-15T00:31:47.432Z,25.35
2023-02-15T00:34:17.645Z,24.00
2023-02-15T00:36:46.298Z,26.40
2023-02-15T00:39:15.224Z,22.50
2023-02-15T00:41:43.444Z,24.15
2023-02-15T00:44:13.220Z,25.90
2023-02-15T00:46:41.379Z,27.48
2023-02-15T00:49:09.611Z,26.23
2023-02-15T00:51:37.898Z,25.80
2023-02-15T00:54:06.165Z,24.75
2023-02-15T00:56:34.318Z,25.23
2023-02-15T00:59:02.412Z,26.10
2023-02-15T01:01:32.024Z,25.50
2023-02-15T01:04:00.117Z,25.60
2023-02-15T01:06:28.248Z,25.17
2023-02-15T01:08:56.234Z,24.02
2023-02-15T01:11:25.391Z,28.20
2023-02-15T01:13:55.691Z,25.00
2023-02-15T01:16:24.744Z,24.52
2023-02-15T01:18:55.703Z,23.50
2023-02-15T01:21:25.704Z,24.77
2023-02-15T01:23:53.704Z,24.52
2023-02-15T01:26:21.803Z,23.85
2023-02-15T01:28:51.220Z,23.33
2023-02-15T01:31:22.001Z,26.52
2023-02-15T01:33:50.634Z,25.15
2023-02-15T01:36:21.780Z,24.80
2023-02-15T01:38:50.392Z,23.45
2023-02-15T01:41:25.004Z,25.00
2023-02-15T01:43:55.185Z,26.13
2023-02-15T01:46:28.721Z,25.90
2023-02-15T01:49:03.845Z,25.52
2023-02-15T01:51:36.707Z,26.23
2023-02-15T01:54:11.356Z,24.88
2023-02-15T01:56:41.758Z,23.33
2023-02-15T01:59:14.140Z,24.55
2023-02-15T02:01:42.324Z,25.08
2023-02-15T02:04:17.218Z,26.70
2023-02-15T02:06:48.596Z,29.17
2023-02-15T02:09:16.742Z,26.75
2023-02-15T02:11:47.463Z,27.02
2023-02-15T02:14:15.805Z,25.60
2023-02-15T02:16:52.132Z,24.70
2023-02-15T02:19:49.780Z,27.85
2023-02-15T02:22:55.362Z,25.95
2023-02-15T02:26:02.002Z,25.35
2023-02-15T02:28:57.630Z,27.55
2023-02-15T02:31:46.374Z,27.90
2023-02-15T02:34:20.321Z,26.10
2023-02-15T02:36:55.243Z,24.35
2023-02-15T02:39:30.990Z,25.10
2023-02-15T02:42:04.893Z,25.67
2023-02-15T02:44:43.810Z,27.73
2023-02-15T02:47:15.404Z,23.88
2023-02-15T02:49:49.825Z,23.13
2023-02-15T02:52:45.366Z,22.48
2023-02-15T02:55:24.348Z,21.27
2023-02-15T02:58:08.478Z,20.90
2023-02-15T03:00:48.062Z,21.90
2023-02-15T03:03:27.784Z,20.45
2023-02-15T03:06:04.012Z,19.40
2023-02-15T03:08:41.334Z,19.88
2023-02-15T03:11:18.973Z,20.30
2023-02-15T03:13:54.734Z,20.85
2023-02-15T03:16:41.581Z,22.90
2023-02-15T03:19:22.332Z,21.50
2023-02-15T03:22:19.147Z,20.15
2023-02-15T03:24:57.819Z,19.23
2023-02-15T03:27:38.529Z,19.70
2023-02-15T03:30:20.104Z,18.95
2023-02-15T03:33:00.646Z,18.25
2023-02-15T03:35:45.821Z,18.52
2023-02-15T03:38:26.594Z,19.42
2023-02-15T03:41:28.209Z,18.10
2023-02-15T03:44:10.653Z,19.63
2023-02-15T03:46:53.748Z,19.83
2023-02-15T03:49:42.227Z,18.25
2023-02-15T03:52:14.095Z,17.85
2023-02-15T03:54:46.981Z,18.15
2023-02-15T03:57:42.984Z,18.55
2023-02-15T04:00:33.307Z,19.13
2023-02-15T04:03:17.639Z,21.35
2023-02-15T04:05:52.271Z,19.55
2023-02-15T04:08:46.291Z,19.83
2023-02-15T04:11:20.601Z,18.45
2023-02-15T04:13:57.694Z,19.90
2023-02-15T04:16:34.246Z,19.13
2023-02-15T04:19:21.466Z,18.73
2023-02-15T04:22:07.383Z,16.38
2023-02-15T04:25:00.890Z,19.27
2023-02-15T04:27:36.277Z,17.83
2023-02-15T04:30:08.376Z,19.63
2023-02-15T04:32:42.128Z,19.42
2023-02-15T04:35:12.350Z,18.02
2023-02-15T04:37:43.398Z,19.42
2023-02-15T04:40:16.023Z,18.48
2023-02-15T04:42:51.619Z,19.40
2023-02-15T04:45:23.446Z,17.98
2023-02-15T04:48:13.407Z,12.77
2023-02-15T04:50:42.632Z,17.10
2023-02-15T04:53:11.646Z,18.20
2023-02-15T04:55:41.082Z,18.15
2023-02-15T04:58:15.454Z,16.50
2023-02-15T05:00:44.343Z,17.00
2023-02-15T05:03:18.642Z,18.73
2023-02-15T05:05:57.847Z,18.17
2023-02-15T05:08:29.572Z,17.30
2023-02-15T05:10:58.754Z,13.20
2023-02-15T05:13:34.690Z,17.10
2023-02-15T05:16:05.495Z,17.65
2023-02-15T05:18:34.672Z,19.13
2023-02-15T05:21:14.892Z,19.35
2023-02-15T05:23:45.096Z,16.85
2023-02-15T05:26:39.196Z,18.13
2023-02-15T05:29:13.254Z,16.80
2023-02-15T05:31:58.619Z,19.05
2023-02-15T05:34:27.794Z,18.33
2023-02-15T05:36:58.720Z,17.02
2023-02-15T05:39:30.192Z,17.42
2023-02-15T05:42:01.390Z,17.63
2023-02-15T05:44:31.359Z,18.80
2023-02-15T05:47:04.249Z,17.23
2023-02-15T05:49:34.975Z,17.35
2023-02-15T05:52:17.637Z,18.50
2023-02-15T05:57:16.225Z,18.00
2023-02-15T05:59:51.206Z,17.10
2023-02-15T06:02:19.550Z,17.48
2023-02-15T06:04:47.684Z,17.38
2023-02-15T06:07:15.733Z,19.90
2023-02-15T06:09:43.819Z,18.92
2023-02-15T06:12:11.843Z,19.02
2023-02-15T06:14:39.957Z,17.92
2023-02-15T06:17:09.444Z,17.52
2023-02-15T06:19:40.166Z,19.60
2023-02-15T06:22:08.356Z,19.58
2023-02-15T06:24:36.517Z,17.70
2023-02-15T06:27:04.859Z,18.80
2023-02-15T06:29:32.882Z,18.75
2023-02-15T06:32:00.966Z,18.55
2023-02-15T06:34:32.411Z,17.95
2023-02-15T06:37:00.459Z,18.70
2023-02-15T06:39:28.575Z,16.80
2023-02-15T06:41:59.499Z,17.92
2023-02-15T06:44:30.262Z,18.77
2023-02-15T06:46:58.327Z,19.27
2023-02-15T06:49:28.900Z,18.17
2023-02-15T06:51:58.313Z,17.60
2023-02-15T06:54:26.408Z,17.65
2023-02-15T06:56:54.436Z,17.00
2023-02-15T06:59:22.513Z,18.23
2023-02-15T07:01:51.259Z,19.90
2023-02-15T07:04:19.242Z,18.83
2023-02-15T07:06:47.344Z,18.63
2023-02-15T07:09:17.155Z,18.20
2023-02-15T07:12:02.824Z,20.05
2023-02-15T07:14:30.780Z,19.13
2023-02-15T07:17:01.821Z,20.33
2023-02-15T07:19:29.954Z,20.60
2023-02-15T07:21:57.988Z,20.38
2023-02-15T07:24:27.456Z,19.33
2023-02-15T07:26:57.247Z,17.58
2023-02-15T07:29:25.469Z,19.13
2023-02-15T07:31:56.486Z,19.15
2023-02-15T07:34:24.626Z,18.67
2023-02-15T07:36:54.646Z,19.08
2023-02-15T07:39:24.638Z,18.92
2023-02-15T07:41:54.212Z,17.63
2023-02-15T07:44:22.326Z,17.30
2023-02-15T07:46:50.580Z,17.08
2023-02-15T07:49:18.739Z,16.02
2023-02-15T07:51:47.166Z,16.08
2023-02-15T07:54:15.121Z,17.42
2023-02-15T07:56:43.106Z,16.63
2023-02-15T07:59:14.502Z,16.60
2023-02-15T08:01:43.569Z,16.73
2023-02-15T08:04:13.257Z,17.30
2023-02-15T08:06:41.230Z,18.15
2023-02-15T08:09:11.462Z,16.70
2023-02-15T08:11:40.809Z,15.93
2023-02-15T08:14:10.642Z,16.35
2023-02-15T08:16:41.495Z,17.80
2023-02-15T08:19:11.428Z,20.27
2023-02-15T08:21:42.063Z,17.58
2023-02-15T08:24:11.776Z,17.90
2023-02-15T08:26:42.323Z,17.45
2023-02-15T08:29:13.018Z,17.08
2023-02-15T08:31:43.006Z,17.27
2023-02-15T08:34:12.344Z,15.77
2023-02-15T08:36:42.614Z,18.30
2023-02-15T08:39:10.817Z,18.08
2023-02-15T08:41:41.685Z,18.38
2023-02-15T08:44:11.715Z,17.48
2023-02-15T08:46:43.765Z,17.77
2023-02-15T08:49:15.688Z,18.13
2023-02-15T08:51:44.280Z,18.45
2023-02-15T08:54:15.184Z,17.48
2023-02-15T08:56:46.582Z,17.77
2023-02-15T08:59:16.550Z,15.82
2023-02-15T09:01:44.767Z,17.00
2023-02-15T09:04:16.682Z,15.75
2023-02-15T09:06:48.124Z,17.17
2023-02-15T09:09:17.311Z,16.10
2023-02-15T09:11:47.559Z,18.67
2023-02-15T09:14:17.258Z,16.95
2023-02-15T09:16:49.754Z,16.52
2023-02-15T09:19:20.551Z,16.77
2023-02-15T09:21:48.912Z,15.95
2023-02-15T09:24:18.389Z,16.73
2023-02-15T09:26:48.412Z,17.58
2023-02-15T09:29:17.776Z,17.25
2023-02-15T09:31:47.418Z,17.02
2023-02-15T09:34:17.680Z,17.08
2023-02-15T09:36:47.881Z,16.77
2023-02-15T09:39:17.860Z,16.63
2023-02-15T09:42:26.750Z,16.50
2023-02-15T09:45:08.056Z,17.38
2023-02-15T09:48:01.834Z,16.95
2023-02-15T09:50:41.953Z,16.15
2023-02-15T09:53:41.639Z,15.77
2023-02-15T09:56:16.652Z,15.68
2023-02-15T09:58:53.559Z,16.52
2023-02-15T10:01:35.912Z,17.23
2023-02-15T10:04:28.655Z,17.30
2023-02-15T10:07:07.644Z,17.42
2023-02-15T10:09:58.169Z,17.92
2023-02-15T10:12:53.010Z,16.15
2023-02-15T10:15:31.444Z,15.77
2023-02-15T10:18:29.207Z,19.42
2023-02-15T10:21:06.666Z,17.15
2023-02-15T10:23:53.333Z,19.42
2023-02-15T10:26:24.738Z,16.88
2023-02-15T10:28:55.639Z,17.50
2023-02-15T10:31:27.513Z,17.83
2023-02-15T10:34:20.376Z,17.25
2023-02-15T10:37:39.348Z,18.45
2023-02-15T10:40:15.698Z,17.98
2023-02-15T10:43:00.210Z,19.23
2023-02-15T10:45:41.193Z,21.42
2023-02-15T10:48:26.096Z,20.38
2023-02-15T10:50:57.051Z,21.20
2023-02-15T10:53:49.752Z,19.90
2023-02-15T10:56:37.644Z,21.20
2023-02-15T10:59:51.281Z,19.40
2023-02-15T11:03:10.671Z,20.23
2023-02-15T11:05:59.919Z,22.55
2023-02-15T11:08:38.422Z,20.55
2023-02-15T11:11:23.599Z,20.48
2023-02-15T11:14:11.170Z,18.75
2023-02-15T11:16:42.899Z,19.17
2023-02-15T11:19:28.846Z,19.60
2023-02-15T11:22:04.383Z,19.13
2023-02-15T11:24:43.371Z,18.40
2023-02-15T11:27:27.235Z,18.83
2023-02-15T11:30:04.762Z,20.30
2023-02-15T11:32:41.671Z,18.65
2023-02-15T11:35:23.934Z,20.38
2023-02-15T11:38:06.462Z,19.55
2023-02-15T11:40:38.495Z,19.95
2023-02-15T11:43:16.266Z,20.88
2023-02-15T11:45:48.487Z,20.70
2023-02-15T11:48:18.925Z,20.90
2023-02-15T11:50:52.111Z,19.65
2023-02-15T11:53:31.181Z,22.45
2023-02-15T11:56:04.974Z,14.93
2023-02-15T11:58:45.984Z,19.95
2023-02-15T12:01:18.999Z,21.52
2023-02-15T12:03:50.249Z,20.08
2023-02-15T12:06:27.338Z,19.75
2023-02-15T12:09:05.630Z,20.02
2023-02-15T12:11:38.320Z,20.35
2023-02-15T12:14:07.882Z,18.85
2023-02-15T12:16:44.484Z,21.35
2023-02-15T12:19:30.309Z,21.08
2023-02-15T12:22:01.593Z,21.27
2023-02-15T12:24:35.511Z,21.35
2023-02-15T12:27:07.061Z,21.67
2023-02-15T12:29:42.345Z,22.60
2023-02-15T12:32:19.181Z,22.25
2023-02-15T12:34:48.540Z,21.25
2023-02-15T12:37:25.068Z,21.30
2023-02-15T12:39:56.252Z,22.73
2023-02-15T12:42:29.264Z,23.92
2023-02-15T12:45:02.614Z,23.88
2023-02-15T12:47:32.066Z,23.45
2023-02-15T12:50:17.762Z,22.58
2023-02-15T12:52:49.751Z,23.50
2023-02-15T12:55:24.880Z,23.35
2023-02-15T12:58:08.165Z,22.90
2023-02-15T13:00:37.661Z,23.58
2023-02-15T13:03:05.926Z,23.83
2023-02-15T13:05:37.804Z,22.13
2023-02-15T13:08:19.582Z,16.15
2023-02-15T13:10:56.656Z,22.87
2023-02-15T13:13:27.430Z,20.60
2023-02-15T13:16:00.303Z,21.73
2023-02-15T13:18:33.392Z,22.27
2023-02-15T13:21:11.786Z,23.48
2023-02-15T13:23:45.196Z,22.65
2023-02-15T13:26:20.588Z,24.25
2023-02-15T13:28:51.808Z,24.27
2023-02-15T13:31:21.877Z,23.10
2023-02-15T13:34:02.013Z,22.75
2023-02-15T13:36:42.367Z,26.25
2023-02-15T13:39:19.885Z,23.10
2023-02-15T13:41:58.891Z,22.23
2023-02-15T13:44:57.910Z,23.38
2023-02-15T13:47:34.632Z,21.33
2023-02-15T13:50:36.122Z,22.92
2023-02-15T13:53:20.718Z,23.65
2023-02-15T13:55:54.324Z,22.70
2023-02-15T13:58:36.410Z,24.38
2023-02-15T14:01:12.533Z,22.50
2023-02-15T14:04:03.220Z,23.90
2023-02-15T14:06:47.616Z,23.90
2023-02-15T14:09:28.250Z,23.10
2023-02-15T14:12:07.738Z,24.48
2023-02-15T14:14:50.889Z,21.58
2023-02-15T14:17:27.220Z,23.35
2023-02-15T14:19:59.633Z,23.10
2023-02-15T14:22:33.961Z,23.98
2023-02-15T14:25:20.595Z,23.65
2023-02-15T14:28:00.151Z,22.80
2023-02-15T14:30:34.837Z,23.60
2023-02-15T14:33:08.255Z,22.65
2023-02-15T14:35:38.136Z,22.90
2023-02-15T14:38:15.791Z,23.88
2023-02-15T14:41:02.269Z,23.42
2023-02-15T14:43:46.918Z,25.42
2023-02-15T14:46:23.750Z,23.25
2023-02-15T14:48:54.331Z,24.77
2023-02-15T14:51:57.890Z,23.95
2023-02-15T14:54:59.043Z,24.70
2023-02-15T14:57:36.390Z,22.08
2023-02-15T15:00:40.745Z,22.42
2023-02-15T15:03:23.663Z,24.25
2023-02-15T15:05:55.217Z,22.33
2023-02-15T15:08:33.839Z,24.43
2023-02-15T15:11:43.432Z,21.20
2023-02-15T15:14:33.381Z,24.40
2023-02-15T15:17:04.754Z,22.85
2023-02-15T15:20:15.102Z,23.52
2023-02-15T15:22:45.053Z,25.67
2023-02-15T15:25:45.654Z,25.92
2023-02-15T15:29:01.494Z,24.00
2023-02-15T15:31:39.902Z,24.40
2023-02-15T15:34:43.873Z,25.75
2023-02-15T15:38:02.342Z,24.38
2023-02-15T15:41:24.960Z,24.42
2023-02-15T15:44:27.106Z,24.17
2023-02-15T15:47:28.584Z,22.33
2023-02-15T15:49:59.112Z,24.30
2023-02-15T15:52:28.291Z,21.88
2023-02-15T15:55:04.185Z,26.52
2023-02-15T15:57:36.203Z,25.90
2023-02-15T16:00:08.512Z,25.10
2023-02-15T16:02:36.594Z,26.17
2023-02-15T16:05:11.757Z,26.55
2023-02-15T16:07:43.445Z,22.23
2023-02-15T16:10:23.428Z,24.70
2023-02-15T16:12:52.707Z,26.42
2023-02-15T16:15:24.531Z,24.92
2023-02-15T16:17:55.981Z,18.80
2023-02-15T16:20:27.092Z,24.92
2023-02-15T16:23:03.386Z,22.90
2023-02-15T16:25:45.218Z,26.58
2023-02-15T16:28:14.654Z,17.80
2023-02-15T16:30:45.516Z,24.25
2023-02-15T16:33:15.878Z,22.50
2023-02-15T16:35:56.551Z,23.98
2023-02-15T16:38:51.124Z,23.40
2023-02-15T16:41:23.362Z,23.08
2023-02-15T16:43:54.220Z,22.17
2023-02-15T16:46:30.169Z,22.30
2023-02-15T16:49:02.562Z,23.77
2023-02-15T16:51:33.092Z,23.17
2023-02-15T16:54:08.988Z,24.23
2023-02-15T16:56:38.222Z,23.50
2023-02-15T16:59:06.533Z,24.10
2023-02-15T17:01:36.094Z,25.13
2023-02-15T17:04:26.259Z,25.38
2023-02-15T17:07:07.520Z,20.92
2023-02-15T17:09:36.415Z,22.23
2023-02-15T17:12:04.539Z,23.38
2023-02-15T17:14:33.929Z,23.42
2023-02-15T17:17:08.169Z,26.10
2023-02-15T17:19:47.593Z,27.45
2023-02-15T17:22:21.994Z,23.10
2023-02-15T17:24:52.314Z,23.73
2023-02-15T17:27:23.224Z,24.52
2023-02-15T17:29:58.303Z,24.48
2023-02-15T17:32:30.024Z,27.08
2023-02-15T17:35:18.793Z,24.60
2023-02-15T17:37:49.574Z,23.70
2023-02-15T17:40:23.003Z,25.70
2023-02-15T17:42:51.120Z,25.10
2023-02-15T17:45:19.496Z,27.80
2023-02-15T17:47:50.696Z,26.15
2023-02-15T17:50:22.630Z,26.73
2023-02-15T17:52:51.128Z,20.92
2023-02-15T17:55:37.933Z,27.02
2023-02-15T17:58:12.031Z,24.88
2023-02-15T18:01:01.627Z,26.73
2023-02-15T18:03:58.764Z,27.42
2023-02-15T18:06:46.057Z,26.60
2023-02-15T18:09:33.554Z,25.73
2023-02-15T18:12:02.179Z,24.60
2023-02-15T18:14:31.740Z,27.85
2023-02-15T18:17:05.818Z,26.02
2023-02-15T18:19:38.074Z,26.92
2023-02-15T18:22:10.881Z,25.85
2023-02-15T18:24:39.714Z,30.35
2023-02-15T18:27:14.230Z,25.35
2023-02-15T18:29:44.651Z,26.52
2023-02-15T18:32:19.919Z,27.15
2023-02-15T18:34:50.465Z,27.55
2023-02-15T18:37:21.472Z,25.77
2023-02-15T18:39:50.770Z,25.02
2023-02-15T18:42:26.210Z,27.65
2023-02-15T18:44:58.125Z,26.05
2023-02-15T18:47:26.966Z,26.65
2023-02-15T18:49:58.515Z,26.75
2023-02-15T18:52:33.911Z,26.38
2023-02-15T18:55:04.895Z,25.67
2023-02-15T18:57:34.421Z,26.23
2023-02-15T19:00:03.068Z,27.65
2023-02-15T19:02:32.812Z,25.90
2023-02-15T19:05:02.778Z,27.20
2023-02-15T19:07:32.573Z,26.92
2023-02-15T19:10:03.415Z,24.83
2023-02-15T19:12:32.635Z,23.88
2023-02-15T19:15:02.270Z,26.75
2023-02-15T19:17:34.157Z,28.20
2023-02-15T19:20:04.150Z,21.13
2023-02-15T19:22:34.290Z,28.45
2023-02-15T19:25:06.020Z,26.88
2023-02-15T19:27:36.993Z,20.98
2023-02-15T19:30:14.202Z,25.63
2023-02-15T19:32:42.579Z,27.70
2023-02-15T19:35:19.733Z,27.08
2023-02-15T19:37:51.467Z,26.85
2023-02-15T19:40:22.848Z,26.40
2023-02-15T19:42:51.843Z,29.45
2023-02-15T19:45:24.317Z,28.30
2023-02-15T19:50:28.730Z,24.48
2023-02-15T19:52:57.862Z,25.52
2023-02-15T19:55:27.942Z,26.20
2023-02-15T19:57:58.629Z,27.23
2023-02-15T20:00:29.325Z,27.73
2023-02-15T20:02:59.741Z,27.15
2023-02-15T20:05:30.953Z,28.70
2023-02-15T20:08:01.766Z,31.38
2023-02-15T20:10:31.421Z,26.15
2023-02-15T20:13:00.736Z,29.40
2023-02-15T20:15:32.175Z,25.88
2023-02-15T20:18:04.492Z,26.52
2023-02-15T20:20:40.490Z,29.48
2023-02-15T20:23:18.467Z,24.65
2023-02-15T20:25:47.229Z,26.75
2023-02-15T20:28:18.209Z,27.60
2023-02-15T20:30:48.366Z,27.02
2023-02-15T20:33:17.956Z,28.13
2023-02-15T20:35:48.598Z,27.60
2023-02-15T20:38:21.110Z,26.08
2023-02-15T20:41:07.738Z,28.92
2023-02-15T20:43:36.771Z,25.77
2023-02-15T20:46:08.550Z,27.55
2023-02-15T20:48:40.067Z,27.45
2023-02-15T20:51:17.377Z,18.17
2023-02-15T20:53:46.120Z,26.92
2023-02-15T20:56:23.918Z,27.60
2023-02-15T20:58:53.021Z,26.50
2023-02-15T21:01:22.382Z,25.88
2023-02-15T21:03:53.039Z,31.35
2023-02-15T21:06:25.823Z,33.78
2023-02-15T21:08:54.277Z,30.27
2023-02-15T21:11:24.821Z,27.23
2023-02-15T21:13:58.173Z,27.50
2023-02-15T21:16:29.683Z,27.13
2023-02-15T21:19:00.004Z,29.70
2023-02-15T21:21:29.911Z,29.75
2023-02-15T21:24:00.453Z,29.30
2023-02-15T21:26:29.247Z,28.70
2023-02-15T21:29:00.686Z,27.02
2023-02-15T21:31:31.063Z,32.55
2023-02-15T21:33:59.593Z,30.10
2023-02-15T21:36:30.606Z,28.83
2023-02-15T21:39:05.662Z,35.97
2023-02-15T21:41:51.487Z,29.92
2023-02-15T21:44:41.731Z,33.97
2023-02-15T21:47:37.261Z,32.30
2023-02-15T21:50:27.920Z,33.63
2023-02-15T21:52:57.460Z,32.95
2023-02-15T21:55:26.387Z,32.45
2023-02-15T21:57:55.214Z,33.80
2023-02-15T22:00:26.586Z,31.45
2023-02-15T22:02:56.972Z,34.33
2023-02-15T22:05:29.358Z,34.35
2023-02-15T22:08:02.264Z,30.38
2023-02-15T22:10:32.578Z,31.65
2023-02-15T22:13:03.677Z,29.05
2023-02-15T22:15:37.134Z,29.92
2023-02-15T22:18:06.145Z,32.95
2023-02-15T22:20:35.076Z,30.77
2023-02-15T22:23:04.847Z,31.52
2023-02-15T22:25:33.527Z,31.17
2023-02-15T22:28:02.489Z,34.67
2023-02-15T22:30:32.976Z,36.00
2023-02-15T22:33:03.742Z,38.30
2023-02-15T22:35:34.614Z,38.17
2023-02-15T22:38:04.312Z,37.25
2023-02-15T22:40:35.740Z,37.83
2023-02-15T22:43:06.558Z,44.60
2023-02-15T22:45:36.614Z,40.00
2023-02-15T22:48:05.702Z,34.78
2023-02-15T22:50:37.998Z,38.33
2023-02-15T22:53:08.045Z,36.97
2023-02-15T22:55:38.948Z,34.80
2023-02-15T22:58:08.065Z,33.30
2023-02-15T23:00:40.685Z,34.45
2023-02-15T23:03:16.848Z,34.10
2023-02-15T23:05:45.842Z,35.58
2023-02-15T23:08:16.593Z,32.22
2023-02-15T23:10:46.892Z,27.98
2023-02-15T23:13:25.707Z,32.08
2023-02-15T23:15:58.385Z,28.38
2023-02-15T23:18:29.922Z,27.10
2023-02-15T23:21:01.731Z,28.00
2023-02-15T23:23:37.895Z,25.73
2023-02-15T23:26:12.496Z,24.83
2023-02-15T23:28:41.009Z,25.33
2023-02-15T23:31:18.805Z,27.23
2023-02-15T23:33:47.593Z,26.85
2023-02-15T23:36:26.928Z,29.63
2023-02-15T23:38:58.868Z,31.13
2023-02-15T23:41:31.897Z,30.17
2023-02-15T23:44:03.886Z,28.63
2023-02-15T23:46:40.181Z,30.25
2023-02-15T23:49:15.973Z,32.33
2023-02-15T23:51:46.130Z,29.90
2023-02-15T23:54:17.531Z,32.35
2023-02-15T23:56:48.786Z,21.17
2023-02-15T23:59:19.771Z,27.05
